Crestview Terrace, Illinois
Current Conditions -  °F | °C
As of 7:35 AM on Saturday 20 Dec 2014 (Local Time) from KFWC Reporting Station
Overcast Overcast  
Wind Chill: 32°   Ceiling: 5500
Heat Index: 32°   Visibility: 7mi
Dew Point: 29°   Wind: 3mph
Humidity: 87%   Direction: 100°E
Pressure: 30.29"   Gusts: NA
Location:  38.3669°N, 88.3516°W
Report Text: KFWC 201335Z AUTO 10003KT 7SM OVC055 00/M02 A3029 RMK AO1 T00001019
Loading
Personal Weather Stations






























Interactive Weather Map New forecast layout! Learn more

10-Day Weather Forecast

Advertisements
Track Severe Weather on mobile